createdAt,value
2018-10-16T00:00:12.308Z,10.87
2018-10-16T00:02:40.680Z,10.77
2018-10-16T00:05:09.115Z,11.80
2018-10-16T00:07:37.704Z,11.40
2018-10-16T00:10:07.002Z,11.93
2018-10-16T00:12:35.381Z,11.87
2018-10-16T00:15:04.057Z,12.20
2018-10-16T00:17:32.396Z,12.10
2018-10-16T00:20:00.689Z,12.93
2018-10-16T00:22:28.959Z,12.23
2018-10-16T00:27:55.457Z,12.40
2018-10-16T00:30:25.564Z,11.57
2018-10-16T00:32:53.865Z,11.67
2018-10-16T00:35:22.168Z,11.40
2018-10-16T00:37:50.437Z,12.60
2018-10-16T00:40:18.725Z,12.60
2018-10-16T00:42:46.969Z,14.80
2018-10-16T00:45:15.266Z,12.07
2018-10-16T00:47:43.544Z,11.00
2018-10-16T00:50:11.931Z,11.40
2018-10-16T00:52:40.243Z,12.40
2018-10-16T00:55:09.422Z,12.97
2018-10-16T00:57:38.298Z,13.00
2018-10-16T01:00:07.626Z,13.10
2018-10-16T01:02:35.946Z,11.73
2018-10-16T01:05:05.122Z,13.10
2018-10-16T01:07:33.398Z,13.40
2018-10-16T01:10:01.696Z,13.00
2018-10-16T01:12:31.828Z,12.70
2018-10-16T01:15:00.218Z,12.90
2018-10-16T01:17:28.494Z,13.07
2018-10-16T01:19:58.554Z,13.27
2018-10-16T01:22:26.818Z,12.60
2018-10-16T01:24:55.194Z,12.60
2018-10-16T01:27:23.594Z,12.80
2018-10-16T01:29:52.052Z,12.90
2018-10-16T01:32:20.334Z,13.70
2018-10-16T01:34:48.812Z,13.37
2018-10-16T01:37:17.139Z,14.97
2018-10-16T01:39:45.435Z,13.20
2018-10-16T01:42:13.701Z,13.40
2018-10-16T01:44:41.965Z,12.87
2018-10-16T01:47:10.244Z,14.03
2018-10-16T01:49:38.513Z,15.20
2018-10-16T01:52:06.857Z,14.00
2018-10-16T01:54:35.133Z,15.50
2018-10-16T01:57:03.607Z,14.40
2018-10-16T01:59:31.868Z,15.33
2018-10-16T02:02:00.249Z,15.30
2018-10-16T02:04:28.566Z,13.60
2018-10-16T02:06:56.857Z,13.70
2018-10-16T02:09:25.177Z,15.00
2018-10-16T02:11:53.453Z,14.63
2018-10-16T02:14:21.737Z,14.50
2018-10-16T02:16:50.043Z,15.67
2018-10-16T02:19:18.313Z,15.13
2018-10-16T02:21:46.781Z,13.73
2018-10-16T02:24:15.058Z,12.77
2018-10-16T02:26:43.357Z,14.30
2018-10-16T02:29:11.855Z,14.77
2018-10-16T02:31:40.126Z,14.97
2018-10-16T02:34:08.404Z,14.50
2018-10-16T02:36:36.682Z,13.70
2018-10-16T02:39:07.574Z,12.37
2018-10-16T02:41:35.873Z,13.70
2018-10-16T02:44:04.507Z,14.00
2018-10-16T02:46:32.808Z,13.73
2018-10-16T02:49:01.064Z,13.17
2018-10-16T02:51:29.338Z,15.07
2018-10-16T02:53:57.700Z,13.90
2018-10-16T02:56:26.988Z,14.23
2018-10-16T02:58:55.253Z,15.40
2018-10-16T03:01:23.674Z,15.98
2018-10-16T03:03:54.397Z,16.03
2018-10-16T03:06:22.891Z,16.33
2018-10-16T03:08:51.244Z,15.23
2018-10-16T03:11:19.544Z,17.20
2018-10-16T03:13:49.065Z,16.75
2018-10-16T03:16:17.385Z,15.47
2018-10-16T03:18:45.659Z,15.80
2018-10-16T03:21:13.939Z,15.55
2018-10-16T03:23:42.209Z,15.20
2018-10-16T03:26:10.461Z,15.63
2018-10-16T03:28:38.724Z,16.13
2018-10-16T03:31:07.009Z,14.57
2018-10-16T03:33:35.344Z,14.43
2018-10-16T03:36:03.648Z,14.68
2018-10-16T03:38:31.952Z,13.93
2018-10-16T03:41:00.333Z,14.00
2018-10-16T03:43:28.600Z,13.60
2018-10-16T03:45:56.874Z,12.83
2018-10-16T03:48:25.174Z,13.30
2018-10-16T03:50:53.428Z,13.20
2018-10-16T03:53:21.708Z,12.30
2018-10-16T03:55:49.976Z,13.00
2018-10-16T03:58:18.314Z,14.90
2018-10-16T04:00:46.590Z,13.30
2018-10-16T04:03:15.982Z,13.23
2018-10-16T04:05:44.254Z,13.67
2018-10-16T04:08:13.196Z,15.10
2018-10-16T04:10:42.972Z,13.50
2018-10-16T04:13:12.456Z,13.43
2018-10-16T04:15:41.665Z,13.73
2018-10-16T04:18:10.094Z,13.63
2018-10-16T04:20:38.384Z,15.30
2018-10-16T04:23:06.734Z,15.93
2018-10-16T04:25:34.994Z,15.13
2018-10-16T04:28:03.314Z,16.53
2018-10-16T04:30:31.681Z,15.23
2018-10-16T04:32:59.983Z,13.80
2018-10-16T04:35:29.761Z,14.73
2018-10-16T04:37:58.869Z,14.87
2018-10-16T04:40:27.199Z,13.37
2018-10-16T04:42:55.721Z,13.63
2018-10-16T04:45:23.993Z,16.50
2018-10-16T04:47:52.261Z,13.37
2018-10-16T04:50:20.550Z,13.00
2018-10-16T04:52:49.532Z,12.07
2018-10-16T04:55:19.468Z,15.83
2018-10-16T04:57:48.147Z,16.27
2018-10-16T05:00:17.070Z,13.03
2018-10-16T05:02:46.985Z,13.63
2018-10-16T05:05:19.309Z,12.60
2018-10-16T05:07:49.051Z,12.37
2018-10-16T05:10:17.347Z,13.30
2018-10-16T05:12:45.621Z,13.37
2018-10-16T05:15:25.259Z,14.00
2018-10-16T05:17:53.841Z,14.93
2018-10-16T05:20:22.149Z,13.07
2018-10-16T05:22:53.783Z,12.80
2018-10-16T05:25:22.458Z,13.87
2018-10-16T05:27:53.345Z,14.93
2018-10-16T05:30:21.633Z,13.77
2018-10-16T05:32:49.905Z,14.53
2018-10-16T05:35:18.631Z,14.87
2018-10-16T05:37:47.115Z,15.57
2018-10-16T05:40:15.417Z,13.40
2018-10-16T05:42:43.681Z,14.63
2018-10-16T05:45:13.372Z,13.83
2018-10-16T05:47:43.301Z,14.37
2018-10-16T05:50:11.847Z,14.17
2018-10-16T05:52:40.178Z,14.13
2018-10-16T05:55:08.848Z,14.40
2018-10-16T05:57:37.137Z,13.83
2018-10-16T06:00:17.442Z,12.83
2018-10-16T06:02:46.626Z,13.33
2018-10-16T06:05:14.950Z,13.33
2018-10-16T06:07:44.009Z,12.43
2018-10-16T06:10:12.626Z,12.47
2018-10-16T06:12:40.937Z,12.10
2018-10-16T06:15:10.205Z,12.37
2018-10-16T06:17:39.329Z,12.10
2018-10-16T06:20:10.040Z,11.20
2018-10-16T06:22:38.350Z,12.47
2018-10-16T06:25:08.258Z,10.87
2018-10-16T06:27:36.540Z,11.93
2018-10-16T06:30:05.012Z,11.60
2018-10-16T06:32:33.216Z,11.63
2018-10-16T06:35:01.828Z,11.87
2018-10-16T06:37:30.496Z,11.03
2018-10-16T06:39:58.874Z,12.90
2018-10-16T06:42:27.218Z,12.40
2018-10-16T06:44:55.506Z,11.13
2018-10-16T06:47:24.111Z,10.47
2018-10-16T06:49:52.490Z,11.30
2018-10-16T06:52:20.793Z,11.63
2018-10-16T06:54:49.452Z,14.40
2018-10-16T06:57:17.826Z,12.67
2018-10-16T06:59:46.282Z,11.20
2018-10-16T07:05:07.126Z,11.50
2018-10-16T07:07:35.613Z,12.43
2018-10-16T07:10:04.381Z,12.43
2018-10-16T07:12:32.673Z,11.63
2018-10-16T07:15:01.011Z,11.33
2018-10-16T07:17:29.269Z,12.07
2018-10-16T07:19:57.627Z,12.57
2018-10-16T07:22:26.227Z,11.83
2018-10-16T07:24:54.512Z,11.43
2018-10-16T07:27:22.800Z,11.77
2018-10-16T07:29:51.086Z,10.70
2018-10-16T07:32:19.398Z,11.93
2018-10-16T07:34:47.717Z,10.60
2018-10-16T07:37:16.095Z,11.47
2018-10-16T07:39:44.771Z,12.77
2018-10-16T07:42:13.021Z,11.97
2018-10-16T07:44:41.420Z,11.50
2018-10-16T07:47:09.757Z,12.03
2018-10-16T07:49:38.368Z,12.43
2018-10-16T07:52:08.600Z,11.30
2018-10-16T07:54:39.406Z,11.77
2018-10-16T07:57:07.931Z,11.77
2018-10-16T07:59:36.225Z,12.47
2018-10-16T08:02:04.568Z,13.47
2018-10-16T08:04:32.837Z,12.67
2018-10-16T08:07:01.181Z,12.27
2018-10-16T08:09:30.643Z,14.03
2018-10-16T08:11:59.012Z,13.70
2018-10-16T08:14:28.793Z,14.00
2018-10-16T08:16:57.187Z,14.83
2018-10-16T08:19:29.329Z,13.63
2018-10-16T08:22:01.702Z,12.80
2018-10-16T08:24:30.169Z,13.60
2018-10-16T08:26:59.937Z,12.47
2018-10-16T08:29:28.221Z,11.90
2018-10-16T08:31:56.536Z,11.53
2018-10-16T08:34:26.579Z,12.60
2018-10-16T08:36:54.949Z,12.53
2018-10-16T08:39:33.204Z,12.47
2018-10-16T08:43:13.193Z,11.43
2018-10-16T08:45:52.938Z,11.97
2018-10-16T08:48:34.695Z,12.30
2018-10-16T08:51:14.379Z,11.30
2018-10-16T08:53:42.665Z,10.90
2018-10-16T08:56:11.175Z,11.43
2018-10-16T08:58:39.466Z,11.30
2018-10-16T09:01:07.778Z,12.20
2018-10-16T09:03:36.374Z,11.60
2018-10-16T09:06:04.883Z,11.03
2018-10-16T09:08:33.253Z,11.40
2018-10-16T09:11:01.743Z,10.63
2018-10-16T09:13:30.802Z,13.57
2018-10-16T09:15:59.107Z,11.17
2018-10-16T09:18:27.381Z,11.17
2018-10-16T09:20:57.042Z,11.20
2018-10-16T09:23:25.376Z,10.63
2018-10-16T09:25:53.673Z,11.30
2018-10-16T09:28:22.111Z,10.47
2018-10-16T09:30:51.024Z,10.70
2018-10-16T09:33:19.359Z,9.97
2018-10-16T09:38:51.279Z,10.87
2018-10-16T09:41:19.570Z,10.13
2018-10-16T09:43:47.866Z,10.70
2018-10-16T09:46:16.196Z,10.77
2018-10-16T09:48:44.500Z,11.00
2018-10-16T09:51:14.115Z,11.40
2018-10-16T09:53:42.453Z,11.57
2018-10-16T09:56:10.786Z,10.03
2018-10-16T09:58:41.663Z,10.60
2018-10-16T10:01:15.797Z,10.40
2018-10-16T10:03:49.331Z,10.40
2018-10-16T10:06:17.785Z,10.27
2018-10-16T10:08:46.083Z,9.50
2018-10-16T10:11:14.359Z,10.17
2018-10-16T10:13:45.194Z,8.60
2018-10-16T10:16:13.573Z,9.90
2018-10-16T10:18:44.387Z,10.20
2018-10-16T10:21:12.737Z,9.57
2018-10-16T10:23:41.029Z,8.50
2018-10-16T10:26:09.328Z,9.43
2018-10-16T10:28:37.574Z,10.17
2018-10-16T10:31:06.106Z,9.50
2018-10-16T10:33:34.353Z,9.43
2018-10-16T10:36:02.615Z,8.43
2018-10-16T10:38:30.915Z,9.93
2018-10-16T10:40:59.191Z,9.60
2018-10-16T10:43:27.585Z,9.30
2018-10-16T10:45:55.849Z,9.50
2018-10-16T10:48:24.131Z,9.00
2018-10-16T10:50:52.551Z,9.13
2018-10-16T10:53:20.685Z,10.70
2018-10-16T10:55:49.021Z,8.30
2018-10-16T10:58:17.393Z,9.83
2018-10-16T11:00:45.665Z,9.07
2018-10-16T11:03:14.129Z,8.70
2018-10-16T11:05:42.403Z,9.10
2018-10-16T11:08:10.905Z,10.00
2018-10-16T11:10:40.727Z,9.13
2018-10-16T11:13:25.803Z,10.30
2018-10-16T11:15:59.939Z,9.03
2018-10-16T11:18:28.253Z,9.77
2018-10-16T11:21:02.401Z,10.47
2018-10-16T11:23:30.901Z,9.90
2018-10-16T11:25:59.165Z,9.73
2018-10-16T11:28:27.558Z,10.80
2018-10-16T11:30:55.877Z,9.13
2018-10-16T11:33:30.317Z,11.40
2018-10-16T11:36:27.340Z,10.77
2018-10-16T11:38:56.668Z,9.40
2018-10-16T11:41:24.932Z,9.43
2018-10-16T11:43:59.621Z,9.50
2018-10-16T11:46:27.941Z,9.40
2018-10-16T11:48:56.223Z,10.40
2018-10-16T11:51:24.493Z,10.03
2018-10-16T11:53:52.871Z,9.10
2018-10-16T11:56:21.142Z,10.37
2018-10-16T11:58:49.402Z,9.90
2018-10-16T12:01:17.700Z,9.20
2018-10-16T12:04:21.164Z,9.80
2018-10-16T12:06:49.969Z,9.13
2018-10-16T12:09:18.233Z,9.20
2018-10-16T12:11:55.090Z,9.37
2018-10-16T12:14:23.639Z,8.70
2018-10-16T12:16:59.338Z,10.33
2018-10-16T12:19:33.460Z,9.50
2018-10-16T12:22:01.760Z,9.67
2018-10-16T12:24:30.034Z,9.07
2018-10-16T12:26:58.435Z,8.50
2018-10-16T12:29:26.696Z,8.43
2018-10-16T12:31:54.960Z,8.80
2018-10-16T12:34:23.248Z,8.50
2018-10-16T12:36:51.864Z,9.40
2018-10-16T12:39:21.604Z,8.23
2018-10-16T12:41:57.575Z,9.10
2018-10-16T12:44:26.697Z,8.70
2018-10-16T12:46:54.959Z,8.07
2018-10-16T12:49:23.185Z,7.70
2018-10-16T12:51:51.505Z,8.23
2018-10-16T12:54:19.762Z,8.03
2018-10-16T12:56:48.084Z,8.00
2018-10-16T12:59:16.363Z,8.53
2018-10-16T13:01:44.732Z,8.60
2018-10-16T13:04:13.010Z,8.20
2018-10-16T13:06:41.304Z,8.73
2018-10-16T13:09:10.803Z,7.80
2018-10-16T13:11:39.960Z,7.60
2018-10-16T13:14:08.367Z,8.87
2018-10-16T13:16:36.917Z,8.20
2018-10-16T13:19:05.235Z,8.07
2018-10-16T13:21:33.576Z,7.80
2018-10-16T13:24:02.296Z,8.80
2018-10-16T13:26:30.496Z,8.10
2018-10-16T13:28:59.095Z,8.63
2018-10-16T13:31:27.487Z,9.00
2018-10-16T13:33:56.006Z,8.07
2018-10-16T13:36:24.470Z,8.33
2018-10-16T13:38:52.856Z,9.07
2018-10-16T13:41:21.111Z,8.13
2018-10-16T13:43:49.492Z,7.93
2018-10-16T13:46:17.991Z,7.90
2018-10-16T13:48:46.173Z,7.20
2018-10-16T13:51:14.563Z,7.60
2018-10-16T13:53:42.863Z,8.33
2018-10-16T13:56:11.223Z,8.93
2018-10-16T13:58:40.168Z,7.03
2018-10-16T14:01:08.875Z,7.87
2018-10-16T14:03:37.331Z,8.27
2018-10-16T14:06:05.783Z,7.87
2018-10-16T14:08:34.579Z,8.23
2018-10-16T14:11:02.989Z,8.40
2018-10-16T14:13:31.257Z,9.37
2018-10-16T14:15:59.666Z,8.13
2018-10-16T14:18:27.903Z,8.50
2018-10-16T14:20:56.181Z,8.20
2018-10-16T14:23:24.496Z,8.37
2018-10-16T14:25:52.894Z,7.60
2018-10-16T14:28:21.161Z,7.67
2018-10-16T14:30:49.539Z,8.03
2018-10-16T14:33:17.788Z,8.37
2018-10-16T14:35:46.057Z,7.73
2018-10-16T14:38:14.366Z,8.20
2018-10-16T14:40:42.645Z,8.47
2018-10-16T14:43:10.882Z,8.47
2018-10-16T14:45:39.235Z,7.70
2018-10-16T14:48:07.573Z,8.20
2018-10-16T14:50:35.793Z,7.50
2018-10-16T14:53:04.475Z,8.87
2018-10-16T14:55:32.866Z,7.67
2018-10-16T14:58:01.225Z,9.00
2018-10-16T15:00:29.429Z,9.53
2018-10-16T15:02:57.858Z,7.93
2018-10-16T15:05:26.141Z,8.83
2018-10-16T15:07:54.853Z,10.00
2018-10-16T15:10:23.347Z,9.20
2018-10-16T15:12:52.145Z,8.83
2018-10-16T15:15:20.698Z,9.80
2018-10-16T15:17:49.652Z,8.40
2018-10-16T15:20:18.188Z,8.47
2018-10-16T15:22:46.549Z,9.17
2018-10-16T15:25:14.860Z,8.00
2018-10-16T15:27:43.547Z,9.13
2018-10-16T15:30:11.838Z,8.50
2018-10-16T15:32:40.432Z,8.50
2018-10-16T15:35:11.177Z,9.20
2018-10-16T15:37:41.320Z,8.37
2018-10-16T15:40:11.213Z,9.07
2018-10-16T15:42:39.815Z,9.40
2018-10-16T15:45:09.824Z,9.23
2018-10-16T15:47:38.535Z,8.80
2018-10-16T15:50:07.388Z,9.60
2018-10-16T15:52:35.649Z,9.53
2018-10-16T15:55:04.029Z,8.77
2018-10-16T15:57:32.396Z,8.73
2018-10-16T16:00:00.729Z,7.87
2018-10-16T16:02:29.525Z,8.20
2018-10-16T16:04:57.773Z,9.30
2018-10-16T16:07:26.092Z,8.40
2018-10-16T16:09:54.641Z,10.13
2018-10-16T16:12:22.944Z,8.73
2018-10-16T16:14:51.270Z,9.40
2018-10-16T16:17:19.625Z,8.80
2018-10-16T16:19:48.398Z,9.53
2018-10-16T16:22:17.154Z,9.00
2018-10-16T16:24:45.449Z,8.93
2018-10-16T16:27:13.745Z,9.43
2018-10-16T16:29:42.016Z,8.80
2018-10-16T16:32:10.422Z,9.97
2018-10-16T16:34:39.040Z,8.10
2018-10-16T16:37:07.325Z,8.83
2018-10-16T16:39:35.698Z,9.60
2018-10-16T16:42:08.755Z,8.67
2018-10-16T16:44:37.105Z,9.87
2018-10-16T16:47:05.793Z,9.80
2018-10-16T16:49:34.254Z,9.40
2018-10-16T16:52:02.672Z,8.83
2018-10-16T16:54:30.915Z,9.40
2018-10-16T16:56:59.213Z,8.77
2018-10-16T16:59:27.816Z,9.50
2018-10-16T17:01:56.151Z,9.73
2018-10-16T17:04:25.376Z,10.40
2018-10-16T17:06:53.611Z,9.50
2018-10-16T17:09:22.093Z,10.43
2018-10-16T17:11:50.477Z,10.80
2018-10-16T17:14:18.756Z,9.67
2018-10-16T17:16:47.149Z,10.00
2018-10-16T17:19:15.511Z,10.87
2018-10-16T17:21:44.115Z,10.27
2018-10-16T17:24:12.701Z,9.70
2018-10-16T17:26:41.376Z,9.20
2018-10-16T17:29:09.945Z,9.97
2018-10-16T17:31:38.308Z,8.90
2018-10-16T17:34:06.914Z,10.37
2018-10-16T17:36:35.219Z,10.90
2018-10-16T17:39:04.175Z,9.20
2018-10-16T17:41:32.420Z,9.77
2018-10-16T17:44:00.910Z,9.97
2018-10-16T17:46:29.185Z,10.27
2018-10-16T17:48:57.557Z,10.33
2018-10-16T17:51:25.861Z,11.40
2018-10-16T17:53:54.285Z,10.50
2018-10-16T17:56:22.613Z,10.10
2018-10-16T17:58:50.975Z,10.10
2018-10-16T18:01:19.266Z,9.03
2018-10-16T18:03:48.203Z,24.50
2018-10-16T18:06:16.856Z,20.17
2018-10-16T18:08:45.242Z,9.43
2018-10-16T18:11:13.574Z,10.03
2018-10-16T18:13:41.896Z,9.67
2018-10-16T18:16:10.246Z,9.77
2018-10-16T18:18:38.617Z,9.73
2018-10-16T18:21:07.250Z,10.23
2018-10-16T18:23:35.493Z,10.30
2018-10-16T18:26:03.914Z,9.30
2018-10-16T18:28:32.211Z,10.00
2018-10-16T18:31:00.521Z,10.33
2018-10-16T18:33:28.823Z,10.00
2018-10-16T18:35:57.161Z,11.60
2018-10-16T18:38:25.634Z,10.83
2018-10-16T18:40:54.048Z,10.13
2018-10-16T18:43:22.381Z,9.77
2018-10-16T18:45:51.135Z,10.47
2018-10-16T18:48:20.182Z,10.90
2018-10-16T18:50:48.454Z,10.00
2018-10-16T18:53:16.738Z,10.33
2018-10-16T18:55:45.060Z,9.17
2018-10-16T18:58:13.330Z,10.77
2018-10-16T19:00:41.632Z,10.60
2018-10-16T19:03:10.039Z,10.90
2018-10-16T19:05:38.215Z,9.87
2018-10-16T19:08:06.525Z,11.13
2018-10-16T19:10:35.076Z,9.50
2018-10-16T19:13:04.186Z,10.57
2018-10-16T19:15:32.492Z,10.83
2018-10-16T19:18:00.788Z,10.73
2018-10-16T19:20:29.433Z,10.20
2018-10-16T19:22:57.698Z,10.50
2018-10-16T19:25:26.002Z,10.50
2018-10-16T19:27:54.304Z,10.80
2018-10-16T19:30:22.776Z,11.00
2018-10-16T19:32:51.244Z,10.43
2018-10-16T19:35:19.558Z,11.20
2018-10-16T19:37:47.904Z,11.93
2018-10-16T19:40:16.154Z,11.23
2018-10-16T19:42:44.636Z,12.57
2018-10-16T19:45:13.068Z,10.57
2018-10-16T19:47:41.354Z,12.13
2018-10-16T19:50:10.473Z,12.10
2018-10-16T19:52:38.786Z,11.73
2018-10-16T19:55:07.120Z,10.57
2018-10-16T19:57:35.395Z,11.83
2018-10-16T20:00:03.883Z,11.10
2018-10-16T20:02:32.092Z,10.93
2018-10-16T20:05:00.472Z,12.20
2018-10-16T20:07:28.891Z,11.00
2018-10-16T20:09:57.342Z,11.80
2018-10-16T20:12:25.600Z,11.57
2018-10-16T20:14:54.031Z,11.70
2018-10-16T20:17:22.338Z,11.77
2018-10-16T20:19:51.120Z,11.50
2018-10-16T20:22:19.568Z,12.33
2018-10-16T20:24:47.923Z,13.77
2018-10-16T20:27:16.183Z,12.60
2018-10-16T20:29:44.482Z,12.20
2018-10-16T20:32:13.039Z,12.40
2018-10-16T20:34:41.378Z,12.23
2018-10-16T20:37:09.916Z,11.27
2018-10-16T20:39:38.221Z,12.37
2018-10-16T20:42:07.115Z,12.00
2018-10-16T20:44:35.549Z,12.67
2018-10-16T20:47:03.978Z,12.13
2018-10-16T20:49:32.446Z,11.57
2018-10-16T20:52:00.858Z,11.70
2018-10-16T20:54:29.164Z,11.30
2018-10-16T20:56:57.539Z,11.83
2018-10-16T20:59:25.906Z,12.60
2018-10-16T21:01:54.222Z,11.73
2018-10-16T21:04:22.514Z,11.10
2018-10-16T21:06:50.969Z,11.17
2018-10-16T21:09:19.103Z,10.60
2018-10-16T21:11:47.397Z,10.07
2018-10-16T21:14:15.752Z,10.70
2018-10-16T21:16:44.500Z,10.73
2018-10-16T21:19:13.028Z,12.07
2018-10-16T21:21:41.233Z,12.60
2018-10-16T21:24:10.836Z,14.80
2018-10-16T21:26:39.211Z,12.50
2018-10-16T21:29:07.877Z,12.77
2018-10-16T21:31:36.197Z,13.30
2018-10-16T21:34:07.335Z,12.57
2018-10-16T21:36:39.035Z,12.97
2018-10-16T21:39:07.574Z,12.90
2018-10-16T21:41:35.913Z,12.13
2018-10-16T21:44:04.537Z,10.93
2018-10-16T21:46:32.897Z,11.73
2018-10-16T21:49:01.311Z,11.43
2018-10-16T21:51:29.685Z,11.50
2018-10-16T21:53:58.021Z,10.63
2018-10-16T21:56:29.441Z,11.93
2018-10-16T21:58:57.771Z,12.07
2018-10-16T22:01:32.405Z,11.80
2018-10-16T22:04:01.743Z,12.40
2018-10-16T22:06:30.144Z,11.40
2018-10-16T22:09:05.412Z,12.40
2018-10-16T22:11:33.682Z,11.97
2018-10-16T22:14:02.041Z,13.23
2018-10-16T22:16:30.341Z,13.20
2018-10-16T22:18:58.619Z,12.87
2018-10-16T22:21:27.092Z,13.70
2018-10-16T22:23:55.353Z,13.70
2018-10-16T22:26:23.781Z,14.30
2018-10-16T22:28:52.242Z,12.30
2018-10-16T22:31:20.541Z,13.63
2018-10-16T22:33:48.850Z,14.17
2018-10-16T22:36:17.159Z,12.47
2018-10-16T22:38:45.558Z,13.53
2018-10-16T22:41:13.961Z,12.47
2018-10-16T22:43:42.213Z,11.47
2018-10-16T22:46:10.465Z,12.00
2018-10-16T22:48:38.915Z,12.53
2018-10-16T22:51:07.207Z,13.10
2018-10-16T22:53:35.517Z,13.03
2018-10-16T22:56:03.804Z,13.00
2018-10-16T22:58:32.473Z,11.83
2018-10-16T23:01:00.885Z,11.80
2018-10-16T23:03:29.108Z,11.13
2018-10-16T23:05:57.395Z,11.63
2018-10-16T23:08:25.696Z,12.33
2018-10-16T23:10:54.005Z,12.40
2018-10-16T23:13:22.372Z,13.23
2018-10-16T23:15:50.669Z,12.93
2018-10-16T23:18:18.976Z,12.87
2018-10-16T23:20:47.252Z,12.73
2018-10-16T23:23:15.630Z,12.50
2018-10-16T23:25:43.852Z,12.63
2018-10-16T23:28:12.212Z,12.23
2018-10-16T23:30:40.597Z,11.90
2018-10-16T23:33:08.872Z,12.30
2018-10-16T23:35:37.166Z,12.67
2018-10-16T23:38:05.694Z,12.27
2018-10-16T23:40:33.969Z,11.30
2018-10-16T23:43:02.357Z,11.10
2018-10-16T23:45:30.598Z,11.47
2018-10-16T23:47:58.866Z,11.23
2018-10-16T23:50:27.140Z,10.20
2018-10-16T23:52:55.429Z,11.33
2018-10-16T23:55:23.701Z,10.60
2018-10-16T23:57:51.974Z,10.13
